sensor_id;sensor_type;location;lat;lon;timestamp;temperature;humidity
698;DHT22;331;48.414;9.938;2023-04-24T00:02:19;12.80;99.90
698;DHT22;331;48.414;9.938;2023-04-24T00:04:45;12.80;99.90
698;DHT22;331;48.414;9.938;2023-04-24T00:07:12;12.80;99.90
698;DHT22;331;48.414;9.938;2023-04-24T00:09:39;12.80;99.90
698;DHT22;331;48.414;9.938;2023-04-24T00:12:06;12.80;99.90
698;DHT22;331;48.414;9.938;2023-04-24T00:14:33;12.80;99.90
698;DHT22;331;48.414;9.938;2023-04-24T00:17:02;12.80;99.90
698;DHT22;331;48.414;9.938;2023-04-24T00:19:29;12.70;99.90
698;DHT22;331;48.414;9.938;2023-04-24T00:21:56;12.70;99.90
698;DHT22;331;48.414;9.938;2023-04-24T00:24:22;12.70;99.90
698;DHT22;331;48.414;9.938;2023-04-24T00:26:49;12.60;99.90
698;DHT22;331;48.414;9.938;2023-04-24T00:29:16;12.60;99.90
698;DHT22;331;48.414;9.938;2023-04-24T00:31:43;12.60;99.90
698;DHT22;331;48.414;9.938;2023-04-24T00:34:11;12.60;99.90
698;DHT22;331;48.414;9.938;2023-04-24T00:36:38;12.60;99.90
698;DHT22;331;48.414;9.938;2023-04-24T00:39:05;12.60;99.90
698;DHT22;331;48.414;9.938;2023-04-24T00:41:34;12.60;99.90
698;DHT22;331;48.414;9.938;2023-04-24T00:44:01;12.50;99.90
698;DHT22;331;48.414;9.938;2023-04-24T00:46:28;12.50;99.90
698;DHT22;331;48.414;9.938;2023-04-24T00:48:55;12.50;99.90
698;DHT22;331;48.414;9.938;2023-04-24T00:51:24;12.50;99.90
698;DHT22;331;48.414;9.938;2023-04-24T00:53:50;12.50;99.90
698;DHT22;331;48.414;9.938;2023-04-24T00:56:18;12.50;99.90
698;DHT22;331;48.414;9.938;2023-04-24T00:58:45;12.50;99.90
698;DHT22;331;48.414;9.938;2023-04-24T01:01:12;12.50;99.90
698;DHT22;331;48.414;9.938;2023-04-24T01:03:39;12.40;99.90
698;DHT22;331;48.414;9.938;2023-04-24T01:06:06;12.40;99.90
698;DHT22;331;48.414;9.938;2023-04-24T01:08:35;12.40;99.90
698;DHT22;331;48.414;9.938;2023-04-24T01:11:03;12.40;99.90
698;DHT22;331;48.414;9.938;2023-04-24T01:13:30;12.40;99.90
698;DHT22;331;48.414;9.938;2023-04-24T01:15:57;12.40;99.90
698;DHT22;331;48.414;9.938;2023-04-24T01:18:26;12.30;99.90
698;DHT22;331;48.414;9.938;2023-04-24T01:20:54;12.30;99.90
698;DHT22;331;48.414;9.938;2023-04-24T01:23:24;12.30;99.90
698;DHT22;331;48.414;9.938;2023-04-24T01:28:19;12.30;99.90
698;DHT22;331;48.414;9.938;2023-04-24T01:30:46;12.20;99.90
698;DHT22;331;48.414;9.938;2023-04-24T01:33:12;12.30;99.90
698;DHT22;331;48.414;9.938;2023-04-24T01:35:39;12.20;99.90
698;DHT22;331;48.414;9.938;2023-04-24T01:38:06;12.20;99.90
698;DHT22;331;48.414;9.938;2023-04-24T01:40:36;12.20;99.90
698;DHT22;331;48.414;9.938;2023-04-24T01:43:03;12.20;99.90
698;DHT22;331;48.414;9.938;2023-04-24T01:45:30;12.20;99.90
698;DHT22;331;48.414;9.938;2023-04-24T01:47:57;12.20;99.90
698;DHT22;331;48.414;9.938;2023-04-24T01:50:23;12.10;99.90
698;DHT22;331;48.414;9.938;2023-04-24T01:52:50;12.20;99.90
698;DHT22;331;48.414;9.938;2023-04-24T01:55:17;12.20;99.90
698;DHT22;331;48.414;9.938;2023-04-24T01:57:46;12.10;99.90
698;DHT22;331;48.414;9.938;2023-04-24T02:00:13;12.10;99.90
698;DHT22;331;48.414;9.938;2023-04-24T02:02:40;12.00;99.90
698;DHT22;331;48.414;9.938;2023-04-24T02:05:07;12.10;99.90
698;DHT22;331;48.414;9.938;2023-04-24T02:07:35;12.00;99.90
698;DHT22;331;48.414;9.938;2023-04-24T02:10:02;12.00;99.90
698;DHT22;331;48.414;9.938;2023-04-24T02:12:31;12.00;99.90
698;DHT22;331;48.414;9.938;2023-04-24T02:14:59;12.00;99.90
698;DHT22;331;48.414;9.938;2023-04-24T02:17:26;12.00;99.90
698;DHT22;331;48.414;9.938;2023-04-24T02:19:53;12.00;99.90
698;DHT22;331;48.414;9.938;2023-04-24T02:22:19;12.00;99.90
698;DHT22;331;48.414;9.938;2023-04-24T02:24:46;12.00;99.90
698;DHT22;331;48.414;9.938;2023-04-24T02:27:15;11.90;99.90
698;DHT22;331;48.414;9.938;2023-04-24T02:29:41;11.90;99.90
698;DHT22;331;48.414;9.938;2023-04-24T02:32:10;11.90;99.90
698;DHT22;331;48.414;9.938;2023-04-24T02:34:37;11.90;99.90
698;DHT22;331;48.414;9.938;2023-04-24T02:37:04;11.90;99.90
698;DHT22;331;48.414;9.938;2023-04-24T02:39:31;11.90;99.90
698;DHT22;331;48.414;9.938;2023-04-24T02:41:58;11.90;99.90
698;DHT22;331;48.414;9.938;2023-04-24T02:44:25;11.90;99.90
698;DHT22;331;48.414;9.938;2023-04-24T02:46:52;11.90;99.90
698;DHT22;331;48.414;9.938;2023-04-24T02:49:20;11.80;99.90
698;DHT22;331;48.414;9.938;2023-04-24T02:51:47;11.80;99.90
698;DHT22;331;48.414;9.938;2023-04-24T02:54:14;11.80;99.90
698;DHT22;331;48.414;9.938;2023-04-24T02:56:41;11.80;99.90
698;DHT22;331;48.414;9.938;2023-04-24T02:59:10;11.80;99.90
698;DHT22;331;48.414;9.938;2023-04-24T03:01:36;11.80;99.90
698;DHT22;331;48.414;9.938;2023-04-24T03:04:03;11.80;99.90
698;DHT22;331;48.414;9.938;2023-04-24T03:06:32;11.70;99.90
698;DHT22;331;48.414;9.938;2023-04-24T03:09:00;11.70;99.90
698;DHT22;331;48.414;9.938;2023-04-24T03:11:27;11.70;99.90
698;DHT22;331;48.414;9.938;2023-04-24T03:13:54;11.70;99.90
698;DHT22;331;48.414;9.938;2023-04-24T03:16:21;11.70;99.90
698;DHT22;331;48.414;9.938;2023-04-24T03:18:48;11.70;99.90
698;DHT22;331;48.414;9.938;2023-04-24T03:21:15;11.70;99.90
698;DHT22;331;48.414;9.938;2023-04-24T03:23:44;11.60;99.90
698;DHT22;331;48.414;9.938;2023-04-24T03:26:11;11.70;99.90
698;DHT22;331;48.414;9.938;2023-04-24T03:28:45;11.70;99.90
698;DHT22;331;48.414;9.938;2023-04-24T03:31:12;11.60;99.90
698;DHT22;331;48.414;9.938;2023-04-24T03:33:39;11.60;99.90
698;DHT22;331;48.414;9.938;2023-04-24T03:36:06;11.60;99.90
698;DHT22;331;48.414;9.938;2023-04-24T03:38:43;11.60;99.90
698;DHT22;331;48.414;9.938;2023-04-24T03:41:26;11.60;99.90
698;DHT22;331;48.414;9.938;2023-04-24T03:43:57;11.60;99.90
698;DHT22;331;48.414;9.938;2023-04-24T03:46:24;11.50;99.90
698;DHT22;331;48.414;9.938;2023-04-24T03:48:55;11.50;99.90
698;DHT22;331;48.414;9.938;2023-04-24T03:51:26;11.50;99.90
698;DHT22;331;48.414;9.938;2023-04-24T03:54:03;11.50;99.90
698;DHT22;331;48.414;9.938;2023-04-24T03:56:31;11.50;99.90
698;DHT22;331;48.414;9.938;2023-04-24T03:58:58;11.50;99.90
698;DHT22;331;48.414;9.938;2023-04-24T04:01:26;11.50;99.90
698;DHT22;331;48.414;9.938;2023-04-24T04:04:00;11.50;99.90
698;DHT22;331;48.414;9.938;2023-04-24T04:06:28;11.50;99.90
698;DHT22;331;48.414;9.938;2023-04-24T04:08:57;11.40;99.90
698;DHT22;331;48.414;9.938;2023-04-24T04:11:26;11.40;99.90
698;DHT22;331;48.414;9.938;2023-04-24T04:13:53;11.40;99.90
698;DHT22;331;48.414;9.938;2023-04-24T04:16:21;11.40;99.90
698;DHT22;331;48.414;9.938;2023-04-24T04:18:50;11.40;99.90
698;DHT22;331;48.414;9.938;2023-04-24T04:21:17;11.40;99.90
698;DHT22;331;48.414;9.938;2023-04-24T04:23:45;11.40;99.90
698;DHT22;331;48.414;9.938;2023-04-24T04:26:19;11.40;99.90
698;DHT22;331;48.414;9.938;2023-04-24T04:29:05;11.40;99.90
698;DHT22;331;48.414;9.938;2023-04-24T04:31:35;11.40;99.90
698;DHT22;331;48.414;9.938;2023-04-24T04:34:06;11.30;99.90
698;DHT22;331;48.414;9.938;2023-04-24T04:36:37;11.30;99.90
698;DHT22;331;48.414;9.938;2023-04-24T04:39:23;11.30;99.90
698;DHT22;331;48.414;9.938;2023-04-24T04:41:56;11.30;99.90
698;DHT22;331;48.414;9.938;2023-04-24T04:44:30;11.30;99.90
698;DHT22;331;48.414;9.938;2023-04-24T04:46:59;11.30;99.90
698;DHT22;331;48.414;9.938;2023-04-24T04:49:29;11.30;99.90
698;DHT22;331;48.414;9.938;2023-04-24T04:51:56;11.30;99.90
698;DHT22;331;48.414;9.938;2023-04-24T04:54:25;11.30;99.90
698;DHT22;331;48.414;9.938;2023-04-24T04:56:56;11.20;99.90
698;DHT22;331;48.414;9.938;2023-04-24T04:59:23;11.20;99.90
698;DHT22;331;48.414;9.938;2023-04-24T05:01:57;11.20;99.90
698;DHT22;331;48.414;9.938;2023-04-24T05:04:24;11.20;99.90
698;DHT22;331;48.414;9.938;2023-04-24T05:06:51;11.20;99.90
698;DHT22;331;48.414;9.938;2023-04-24T05:09:20;11.20;99.90
698;DHT22;331;48.414;9.938;2023-04-24T05:11:51;11.20;99.90
698;DHT22;331;48.414;9.938;2023-04-24T05:14:18;11.20;99.90
698;DHT22;331;48.414;9.938;2023-04-24T05:16:45;11.10;99.90
698;DHT22;331;48.414;9.938;2023-04-24T05:19:15;11.10;99.90
698;DHT22;331;48.414;9.938;2023-04-24T05:21:44;11.10;99.90
698;DHT22;331;48.414;9.938;2023-04-24T05:24:11;11.10;99.90
698;DHT22;331;48.414;9.938;2023-04-24T05:26:52;11.10;99.90
698;DHT22;331;48.414;9.938;2023-04-24T05:29:25;11.10;99.90
698;DHT22;331;48.414;9.938;2023-04-24T05:31:53;11.00;99.90
698;DHT22;331;48.414;9.938;2023-04-24T05:34:21;11.10;99.90
698;DHT22;331;48.414;9.938;2023-04-24T05:36:52;11.00;99.90
698;DHT22;331;48.414;9.938;2023-04-24T05:39:19;11.10;99.90
698;DHT22;331;48.414;9.938;2023-04-24T05:41:46;11.10;99.90
698;DHT22;331;48.414;9.938;2023-04-24T05:44:13;11.00;99.90
698;DHT22;331;48.414;9.938;2023-04-24T05:46:41;11.00;99.90
698;DHT22;331;48.414;9.938;2023-04-24T05:49:11;11.00;99.90
698;DHT22;331;48.414;9.938;2023-04-24T05:51:39;11.00;99.90
698;DHT22;331;48.414;9.938;2023-04-24T05:54:06;11.00;99.90
698;DHT22;331;48.414;9.938;2023-04-24T05:56:33;11.00;99.90
698;DHT22;331;48.414;9.938;2023-04-24T05:59:03;11.00;99.90
698;DHT22;331;48.414;9.938;2023-04-24T06:01:33;10.90;99.90
698;DHT22;331;48.414;9.938;2023-04-24T06:04:09;11.00;99.90
698;DHT22;331;48.414;9.938;2023-04-24T06:06:36;11.00;99.90
698;DHT22;331;48.414;9.938;2023-04-24T06:09:04;11.00;99.90
698;DHT22;331;48.414;9.938;2023-04-24T06:11:32;10.90;99.90
698;DHT22;331;48.414;9.938;2023-04-24T06:13:59;10.90;99.90
698;DHT22;331;48.414;9.938;2023-04-24T06:16:54;10.90;99.90
698;DHT22;331;48.414;9.938;2023-04-24T06:19:33;10.90;99.90
698;DHT22;331;48.414;9.938;2023-04-24T06:22:01;10.90;99.90
698;DHT22;331;48.414;9.938;2023-04-24T06:24:29;10.90;99.90
698;DHT22;331;48.414;9.938;2023-04-24T06:26:57;10.90;99.90
698;DHT22;331;48.414;9.938;2023-04-24T06:29:25;10.80;99.90
698;DHT22;331;48.414;9.938;2023-04-24T06:31:52;10.90;99.90
698;DHT22;331;48.414;9.938;2023-04-24T06:34:19;10.80;99.90
698;DHT22;331;48.414;9.938;2023-04-24T06:36:46;10.80;99.90
698;DHT22;331;48.414;9.938;2023-04-24T06:39:13;10.80;99.90
698;DHT22;331;48.414;9.938;2023-04-24T06:41:41;10.80;99.90
698;DHT22;331;48.414;9.938;2023-04-24T06:44:17;10.80;99.90
698;DHT22;331;48.414;9.938;2023-04-24T06:46:44;10.70;99.90
698;DHT22;331;48.414;9.938;2023-04-24T06:51:41;10.70;99.90
698;DHT22;331;48.414;9.938;2023-04-24T06:54:08;10.70;99.90
698;DHT22;331;48.414;9.938;2023-04-24T06:56:37;10.70;99.90
698;DHT22;331;48.414;9.938;2023-04-24T06:59:06;10.70;99.90
698;DHT22;331;48.414;9.938;2023-04-24T07:01:32;10.70;99.90
698;DHT22;331;48.414;9.938;2023-04-24T07:03:59;10.70;99.90
698;DHT22;331;48.414;9.938;2023-04-24T07:06:26;10.70;99.90
698;DHT22;331;48.414;9.938;2023-04-24T07:08:56;10.70;99.90
698;DHT22;331;48.414;9.938;2023-04-24T07:11:23;10.70;99.90
698;DHT22;331;48.414;9.938;2023-04-24T07:13:50;10.70;99.90
698;DHT22;331;48.414;9.938;2023-04-24T07:16:18;10.70;99.90
698;DHT22;331;48.414;9.938;2023-04-24T07:18:45;10.70;99.90
698;DHT22;331;48.414;9.938;2023-04-24T07:21:11;10.60;99.90
698;DHT22;331;48.414;9.938;2023-04-24T07:23:38;10.60;99.90
698;DHT22;331;48.414;9.938;2023-04-24T07:26:06;10.60;99.90
698;DHT22;331;48.414;9.938;2023-04-24T07:28:33;10.60;99.90
698;DHT22;331;48.414;9.938;2023-04-24T07:31:00;10.60;99.90
698;DHT22;331;48.414;9.938;2023-04-24T07:33:28;10.60;99.90
698;DHT22;331;48.414;9.938;2023-04-24T07:35:55;10.60;99.90
698;DHT22;331;48.414;9.938;2023-04-24T07:38:22;10.60;99.90
698;DHT22;331;48.414;9.938;2023-04-24T07:40:51;10.60;99.90
698;DHT22;331;48.414;9.938;2023-04-24T07:43:19;10.60;99.90
698;DHT22;331;48.414;9.938;2023-04-24T07:45:46;10.60;99.90
698;DHT22;331;48.414;9.938;2023-04-24T07:48:13;10.60;99.90
698;DHT22;331;48.414;9.938;2023-04-24T07:50:43;10.60;99.90
698;DHT22;331;48.414;9.938;2023-04-24T07:53:10;10.50;99.90
698;DHT22;331;48.414;9.938;2023-04-24T07:55:39;10.60;99.90
698;DHT22;331;48.414;9.938;2023-04-24T07:58:05;10.50;99.90
698;DHT22;331;48.414;9.938;2023-04-24T08:00:32;10.50;99.90
698;DHT22;331;48.414;9.938;2023-04-24T08:02:59;10.50;99.90
698;DHT22;331;48.414;9.938;2023-04-24T08:05:26;10.50;99.90
698;DHT22;331;48.414;9.938;2023-04-24T08:07:55;10.50;99.90
698;DHT22;331;48.414;9.938;2023-04-24T08:10:22;10.50;99.90
698;DHT22;331;48.414;9.938;2023-04-24T08:12:49;10.50;99.90
698;DHT22;331;48.414;9.938;2023-04-24T08:15:16;10.50;99.90
698;DHT22;331;48.414;9.938;2023-04-24T08:17:43;10.50;99.90
698;DHT22;331;48.414;9.938;2023-04-24T08:20:10;10.50;99.90
698;DHT22;331;48.414;9.938;2023-04-24T08:22:39;10.50;99.90
698;DHT22;331;48.414;9.938;2023-04-24T08:25:07;10.50;99.90
698;DHT22;331;48.414;9.938;2023-04-24T08:27:34;10.50;99.90
698;DHT22;331;48.414;9.938;2023-04-24T08:30:02;10.50;99.90
698;DHT22;331;48.414;9.938;2023-04-24T08:32:29;10.50;99.90
698;DHT22;331;48.414;9.938;2023-04-24T08:34:56;10.50;99.90
698;DHT22;331;48.414;9.938;2023-04-24T08:37:23;10.40;99.90
698;DHT22;331;48.414;9.938;2023-04-24T08:39:50;10.50;99.90
698;DHT22;331;48.414;9.938;2023-04-24T08:42:19;10.50;99.90
698;DHT22;331;48.414;9.938;2023-04-24T08:44:46;10.50;99.90
698;DHT22;331;48.414;9.938;2023-04-24T08:47:14;10.50;99.90
698;DHT22;331;48.414;9.938;2023-04-24T08:49:41;10.50;99.90
698;DHT22;331;48.414;9.938;2023-04-24T08:52:09;10.40;99.90
698;DHT22;331;48.414;9.938;2023-04-24T08:54:38;10.40;99.90
698;DHT22;331;48.414;9.938;2023-04-24T08:57:06;10.40;99.90
698;DHT22;331;48.414;9.938;2023-04-24T08:59:36;10.40;99.90
698;DHT22;331;48.414;9.938;2023-04-24T09:02:03;10.40;99.90
698;DHT22;331;48.414;9.938;2023-04-24T09:04:30;10.40;99.90
698;DHT22;331;48.414;9.938;2023-04-24T09:06:57;10.40;99.90
698;DHT22;331;48.414;9.938;2023-04-24T09:09:24;10.30;99.90
698;DHT22;331;48.414;9.938;2023-04-24T09:11:52;10.30;99.90
698;DHT22;331;48.414;9.938;2023-04-24T09:14:20;10.30;99.90
698;DHT22;331;48.414;9.938;2023-04-24T09:16:50;10.40;99.90
698;DHT22;331;48.414;9.938;2023-04-24T09:19:17;10.30;99.90
698;DHT22;331;48.414;9.938;2023-04-24T09:21:45;10.30;99.90
698;DHT22;331;48.414;9.938;2023-04-24T09:24:14;10.30;99.90
698;DHT22;331;48.414;9.938;2023-04-24T09:26:43;10.30;99.90
698;DHT22;331;48.414;9.938;2023-04-24T09:29:13;10.30;99.90
698;DHT22;331;48.414;9.938;2023-04-24T09:31:40;10.30;99.90
698;DHT22;331;48.414;9.938;2023-04-24T09:34:09;10.30;99.90
698;DHT22;331;48.414;9.938;2023-04-24T09:36:36;10.30;99.90
698;DHT22;331;48.414;9.938;2023-04-24T09:39:04;10.30;99.90
698;DHT22;331;48.414;9.938;2023-04-24T09:41:31;10.30;99.90
698;DHT22;331;48.414;9.938;2023-04-24T09:44:01;10.30;99.90
698;DHT22;331;48.414;9.938;2023-04-24T09:46:36;10.30;99.90
698;DHT22;331;48.414;9.938;2023-04-24T09:49:09;10.30;99.90
698;DHT22;331;48.414;9.938;2023-04-24T09:51:37;10.30;99.90
698;DHT22;331;48.414;9.938;2023-04-24T09:54:04;10.40;99.90
698;DHT22;331;48.414;9.938;2023-04-24T09:56:32;10.40;99.90
698;DHT22;331;48.414;9.938;2023-04-24T09:59:05;10.30;99.90
698;DHT22;331;48.414;9.938;2023-04-24T10:01:33;10.40;99.90
698;DHT22;331;48.414;9.938;2023-04-24T10:04:00;10.40;99.90
698;DHT22;331;48.414;9.938;2023-04-24T10:06:32;10.40;99.90
698;DHT22;331;48.414;9.938;2023-04-24T10:08:59;10.40;99.90
698;DHT22;331;48.414;9.938;2023-04-24T10:11:26;10.40;99.90
698;DHT22;331;48.414;9.938;2023-04-24T10:13:53;10.40;99.90
698;DHT22;331;48.414;9.938;2023-04-24T10:16:21;10.40;99.90
698;DHT22;331;48.414;9.938;2023-04-24T10:18:48;10.40;99.90
698;DHT22;331;48.414;9.938;2023-04-24T10:21:15;10.40;99.90
698;DHT22;331;48.414;9.938;2023-04-24T10:23:44;10.40;99.90
698;DHT22;331;48.414;9.938;2023-04-24T10:26:12;10.40;99.90
698;DHT22;331;48.414;9.938;2023-04-24T10:28:43;10.40;99.90
698;DHT22;331;48.414;9.938;2023-04-24T10:31:11;10.40;99.90
698;DHT22;331;48.414;9.938;2023-04-24T10:33:38;10.40;99.90
698;DHT22;331;48.414;9.938;2023-04-24T10:36:06;10.40;99.90
698;DHT22;331;48.414;9.938;2023-04-24T10:38:34;10.40;99.90
698;DHT22;331;48.414;9.938;2023-04-24T10:41:09;10.40;99.90
698;DHT22;331;48.414;9.938;2023-04-24T10:43:41;10.40;99.90
698;DHT22;331;48.414;9.938;2023-04-24T10:46:09;10.40;99.90
698;DHT22;331;48.414;9.938;2023-04-24T10:48:41;10.40;99.90
698;DHT22;331;48.414;9.938;2023-04-24T10:51:10;10.40;99.90
698;DHT22;331;48.414;9.938;2023-04-24T10:53:37;10.40;99.90
698;DHT22;331;48.414;9.938;2023-04-24T10:56:05;10.40;99.90
698;DHT22;331;48.414;9.938;2023-04-24T10:58:37;10.40;99.90
698;DHT22;331;48.414;9.938;2023-04-24T11:01:05;10.40;99.90
698;DHT22;331;48.414;9.938;2023-04-24T11:03:33;10.40;99.90
698;DHT22;331;48.414;9.938;2023-04-24T11:06:01;10.40;99.90
698;DHT22;331;48.414;9.938;2023-04-24T11:08:29;10.40;99.90
698;DHT22;331;48.414;9.938;2023-04-24T11:11:00;10.40;99.90
698;DHT22;331;48.414;9.938;2023-04-24T11:13:28;10.40;99.90
698;DHT22;331;48.414;9.938;2023-04-24T11:16:16;10.40;99.90
698;DHT22;331;48.414;9.938;2023-04-24T11:18:49;10.40;99.90
698;DHT22;331;48.414;9.938;2023-04-24T11:21:18;10.40;99.90
698;DHT22;331;48.414;9.938;2023-04-24T11:23:45;10.40;99.90
698;DHT22;331;48.414;9.938;2023-04-24T11:26:13;10.50;99.90
698;DHT22;331;48.414;9.938;2023-04-24T11:28:46;10.50;99.90
698;DHT22;331;48.414;9.938;2023-04-24T11:34:06;10.50;99.90
698;DHT22;331;48.414;9.938;2023-04-24T11:36:33;10.50;99.90
698;DHT22;331;48.414;9.938;2023-04-24T11:39:01;10.50;99.90
698;DHT22;331;48.414;9.938;2023-04-24T11:41:28;10.50;99.90
698;DHT22;331;48.414;9.938;2023-04-24T11:43:55;10.40;99.90
698;DHT22;331;48.414;9.938;2023-04-24T11:46:22;10.50;99.90
698;DHT22;331;48.414;9.938;2023-04-24T11:48:48;10.50;99.90
698;DHT22;331;48.414;9.938;2023-04-24T11:51:17;10.40;99.90
698;DHT22;331;48.414;9.938;2023-04-24T11:53:43;10.50;99.90
698;DHT22;331;48.414;9.938;2023-04-24T11:56:10;10.50;99.90
698;DHT22;331;48.414;9.938;2023-04-24T11:58:37;10.50;99.90
698;DHT22;331;48.414;9.938;2023-04-24T12:01:04;10.60;99.90
698;DHT22;331;48.414;9.938;2023-04-24T12:03:31;10.60;99.90
698;DHT22;331;48.414;9.938;2023-04-24T12:06:05;10.60;99.90
698;DHT22;331;48.414;9.938;2023-04-24T12:08:34;10.60;99.90
698;DHT22;331;48.414;9.938;2023-04-24T12:11:01;10.60;99.90
698;DHT22;331;48.414;9.938;2023-04-24T12:13:28;10.60;99.90
698;DHT22;331;48.414;9.938;2023-04-24T12:15:56;10.70;99.90
698;DHT22;331;48.414;9.938;2023-04-24T12:18:23;10.60;99.90
698;DHT22;331;48.414;9.938;2023-04-24T12:20:50;10.60;99.90
698;DHT22;331;48.414;9.938;2023-04-24T12:23:27;10.60;99.90
698;DHT22;331;48.414;9.938;2023-04-24T12:26:01;10.60;99.90
698;DHT22;331;48.414;9.938;2023-04-24T12:28:34;10.60;99.90
698;DHT22;331;48.414;9.938;2023-04-24T12:31:01;10.60;99.90
698;DHT22;331;48.414;9.938;2023-04-24T12:33:32;10.60;99.90
698;DHT22;331;48.414;9.938;2023-04-24T12:35:59;10.60;99.90
698;DHT22;331;48.414;9.938;2023-04-24T12:38:26;10.60;99.90
698;DHT22;331;48.414;9.938;2023-04-24T12:41:03;10.60;99.90
698;DHT22;331;48.414;9.938;2023-04-24T12:43:31;10.60;99.90
698;DHT22;331;48.414;9.938;2023-04-24T12:45:58;10.60;99.90
698;DHT22;331;48.414;9.938;2023-04-24T12:48:25;10.60;99.90
698;DHT22;331;48.414;9.938;2023-04-24T12:50:52;10.60;99.90
698;DHT22;331;48.414;9.938;2023-04-24T12:53:19;10.60;99.90
698;DHT22;331;48.414;9.938;2023-04-24T12:55:46;10.60;99.90
698;DHT22;331;48.414;9.938;2023-04-24T12:58:20;10.60;99.90
698;DHT22;331;48.414;9.938;2023-04-24T13:00:46;10.60;99.90
698;DHT22;331;48.414;9.938;2023-04-24T13:03:14;10.60;99.90
698;DHT22;331;48.414;9.938;2023-04-24T13:05:41;10.60;99.90
698;DHT22;331;48.414;9.938;2023-04-24T13:08:08;10.60;99.90
698;DHT22;331;48.414;9.938;2023-04-24T13:10:35;10.60;99.90
698;DHT22;331;48.414;9.938;2023-04-24T13:13:02;10.60;99.90
698;DHT22;331;48.414;9.938;2023-04-24T13:15:33;10.60;99.90
698;DHT22;331;48.414;9.938;2023-04-24T13:18:00;10.60;99.90
698;DHT22;331;48.414;9.938;2023-04-24T13:20:27;10.50;99.90
698;DHT22;331;48.414;9.938;2023-04-24T13:22:53;10.50;99.90
698;DHT22;331;48.414;9.938;2023-04-24T13:25:20;10.50;99.90
698;DHT22;331;48.414;9.938;2023-04-24T13:27:48;10.50;99.90
698;DHT22;331;48.414;9.938;2023-04-24T13:30:16;10.50;99.90
698;DHT22;331;48.414;9.938;2023-04-24T13:32:44;10.50;99.90
698;DHT22;331;48.414;9.938;2023-04-24T13:35:11;10.50;99.90
698;DHT22;331;48.414;9.938;2023-04-24T13:37:38;10.50;99.90
698;DHT22;331;48.414;9.938;2023-04-24T13:40:05;10.50;99.90
698;DHT22;331;48.414;9.938;2023-04-24T13:42:32;10.50;99.90
698;DHT22;331;48.414;9.938;2023-04-24T13:44:59;10.50;99.90
698;DHT22;331;48.414;9.938;2023-04-24T13:47:26;10.50;99.90
698;DHT22;331;48.414;9.938;2023-04-24T13:49:57;10.50;99.90
698;DHT22;331;48.414;9.938;2023-04-24T13:52:24;10.50;99.90
698;DHT22;331;48.414;9.938;2023-04-24T13:54:50;10.50;99.90
698;DHT22;331;48.414;9.938;2023-04-24T13:57:17;10.40;99.90
698;DHT22;331;48.414;9.938;2023-04-24T13:59:44;10.50;99.90
698;DHT22;331;48.414;9.938;2023-04-24T14:02:11;10.50;99.90
698;DHT22;331;48.414;9.938;2023-04-24T14:04:38;10.50;99.90
698;DHT22;331;48.414;9.938;2023-04-24T14:07:06;10.40;99.90
698;DHT22;331;48.414;9.938;2023-04-24T14:09:34;10.50;99.90
698;DHT22;331;48.414;9.938;2023-04-24T14:12:01;10.50;99.90
698;DHT22;331;48.414;9.938;2023-04-24T14:14:29;10.50;99.90
698;DHT22;331;48.414;9.938;2023-04-24T14:16:56;10.50;99.90
698;DHT22;331;48.414;9.938;2023-04-24T14:19:23;10.50;99.90
698;DHT22;331;48.414;9.938;2023-04-24T14:21:50;10.50;99.90
698;DHT22;331;48.414;9.938;2023-04-24T14:24:18;10.50;99.90
698;DHT22;331;48.414;9.938;2023-04-24T14:26:45;10.50;99.90
698;DHT22;331;48.414;9.938;2023-04-24T14:29:12;10.60;99.90
698;DHT22;331;48.414;9.938;2023-04-24T14:31:39;10.60;99.90
698;DHT22;331;48.414;9.938;2023-04-24T14:34:06;10.60;99.90
698;DHT22;331;48.414;9.938;2023-04-24T14:36:32;10.60;99.90
698;DHT22;331;48.414;9.938;2023-04-24T14:38:59;10.60;99.90
698;DHT22;331;48.414;9.938;2023-04-24T14:41:30;10.60;99.90
698;DHT22;331;48.414;9.938;2023-04-24T14:43:56;10.70;99.90
698;DHT22;331;48.414;9.938;2023-04-24T14:46:23;10.60;99.90
698;DHT22;331;48.414;9.938;2023-04-24T14:48:50;10.70;99.90
698;DHT22;331;48.414;9.938;2023-04-24T14:51:17;10.70;99.90
698;DHT22;331;48.414;9.938;2023-04-24T14:53:44;10.70;99.90
698;DHT22;331;48.414;9.938;2023-04-24T14:56:12;10.60;99.90
698;DHT22;331;48.414;9.938;2023-04-24T14:58:40;10.70;99.90
698;DHT22;331;48.414;9.938;2023-04-24T15:01:07;10.70;99.90
698;DHT22;331;48.414;9.938;2023-04-24T15:03:34;10.70;99.90
698;DHT22;331;48.414;9.938;2023-04-24T15:06:00;10.60;99.90
698;DHT22;331;48.414;9.938;2023-04-24T15:08:27;10.70;99.90
698;DHT22;331;48.414;9.938;2023-04-24T15:10:54;10.70;99.90
698;DHT22;331;48.414;9.938;2023-04-24T15:13:21;10.70;99.90
698;DHT22;331;48.414;9.938;2023-04-24T15:15:49;10.70;99.90
698;DHT22;331;48.414;9.938;2023-04-24T15:18:16;10.70;99.90
698;DHT22;331;48.414;9.938;2023-04-24T15:20:43;10.70;99.90
698;DHT22;331;48.414;9.938;2023-04-24T15:23:11;10.70;99.90
698;DHT22;331;48.414;9.938;2023-04-24T15:25:38;10.70;99.90
698;DHT22;331;48.414;9.938;2023-04-24T15:28:05;10.60;99.90
698;DHT22;331;48.414;9.938;2023-04-24T15:30:32;10.60;99.90
698;DHT22;331;48.414;9.938;2023-04-24T15:33:00;10.60;99.90
698;DHT22;331;48.414;9.938;2023-04-24T15:35:28;10.70;99.90
698;DHT22;331;48.414;9.938;2023-04-24T15:37:55;10.60;99.90
698;DHT22;331;48.414;9.938;2023-04-24T15:40:22;10.70;99.90
698;DHT22;331;48.414;9.938;2023-04-24T15:42:49;10.70;99.90
698;DHT22;331;48.414;9.938;2023-04-24T15:45:16;10.70;99.90
698;DHT22;331;48.414;9.938;2023-04-24T15:47:43;10.60;99.90
698;DHT22;331;48.414;9.938;2023-04-24T15:50:12;10.70;99.90
698;DHT22;331;48.414;9.938;2023-04-24T15:52:41;10.70;99.90
698;DHT22;331;48.414;9.938;2023-04-24T15:55:08;10.60;99.90
698;DHT22;331;48.414;9.938;2023-04-24T15:57:35;10.60;99.90
698;DHT22;331;48.414;9.938;2023-04-24T16:00:03;10.60;99.90
698;DHT22;331;48.414;9.938;2023-04-24T16:02:37;10.60;99.90
698;DHT22;331;48.414;9.938;2023-04-24T16:05:04;10.60;99.90
698;DHT22;331;48.414;9.938;2023-04-24T16:07:33;10.60;99.90
698;DHT22;331;48.414;9.938;2023-04-24T16:10:00;10.60;99.90
698;DHT22;331;48.414;9.938;2023-04-24T16:12:27;10.60;99.90
698;DHT22;331;48.414;9.938;2023-04-24T16:14:53;10.70;99.90
698;DHT22;331;48.414;9.938;2023-04-24T16:17:20;10.70;99.90
698;DHT22;331;48.414;9.938;2023-04-24T16:19:47;10.70;99.90
698;DHT22;331;48.414;9.938;2023-04-24T16:22:14;10.60;99.90
698;DHT22;331;48.414;9.938;2023-04-24T16:24:42;10.60;99.90
698;DHT22;331;48.414;9.938;2023-04-24T16:27:11;10.60;99.90
698;DHT22;331;48.414;9.938;2023-04-24T16:29:38;10.60;99.90
698;DHT22;331;48.414;9.938;2023-04-24T16:32:05;10.70;99.90
698;DHT22;331;48.414;9.938;2023-04-24T16:34:32;10.60;99.90
698;DHT22;331;48.414;9.938;2023-04-24T16:36:58;10.60;99.90
698;DHT22;331;48.414;9.938;2023-04-24T16:39:25;10.60;99.90
698;DHT22;331;48.414;9.938;2023-04-24T16:41:54;10.70;99.90
698;DHT22;331;48.414;9.938;2023-04-24T16:44:21;10.70;99.90
698;DHT22;331;48.414;9.938;2023-04-24T16:46:47;10.60;99.90
698;DHT22;331;48.414;9.938;2023-04-24T16:49:14;10.60;99.90